Mount Pleasant, TX

8:16 AM CDT on June 23, 2017 (GMT -0500)
Mount Pleasant

Weather History for KOSA - January, 2014

Change the Weather History Date:

Saturday, January 4, 2014

  Actual Average (KGGG) Record (KGGG)
Temperature  
Mean Temperature 48 °F -  
Max Temperature 65 °F 55 °F 86 °F (1949)
Min Temperature 31 °F 36 °F 11 °F (1911)
Degree Days  
Heating Degree Days 17    
Moisture  
Dew Point 39 °F    
Average Humidity 70    
Maximum Humidity 87    
Minimum Humidity 50    
Precipitation  
Precipitation 0.00 in - - ()
Sea Level Pressure  
Sea Level Pressure 29.95 in    
Wind  
Wind Speed 11 mph (SSE)    
Max Wind Speed 24 mph    
Max Gust Speed 31 mph    
Visibility 10 miles    
Events      
Averages and records for this station are not official NWS values.
T = Trace of Precipitation, MM = Missing Value Source: NWS Daily Summary

Daily Weather History Graph

Daily Weather History Graph

Search for Another Location

Airport or City:

Trip Planner

Search our weather history database for the weather conditions in past years. The results will help you decide how hot, cold, wet, or windy it might be!

Date:

Astronomy

Jan. 04, 2014 Rise Set
Actual Time 7:23 AM CST 5:26 PM CST
Civil Twilight 6:56 AM CST 5:53 PM CST
Nautical Twilight 6:25 AM CST 6:24 PM CST
Astronomical Twilight 5:55 AM CST 6:54 PM CST
Moon 9:42 AM CST (1/4) 9:32 PM CST (1/4)
Length of Visible Light 10h 57m
Length of Day
10h 02m
Waxing Crescent, 15% of the Moon is Illuminated
Jan 4
Waxing Crescent
Jan 7
First Quarter
Jan 15
Full
Jan 23
Last Quarter
Jan 30
New

Hourly Weather History & Observations

Time (CST) Temp. Windchill Dew Point Humidity Pressure Visibility Wind Dir Wind Speed Gust Speed Precip Events Conditions
12:15 AM 35.1 °F 27.9 °F 25.0 °F 67% 30.13 in 10.0 mi SE 9.2 mph - N/A   Clear
12:35 AM 34.7 °F 27.5 °F 25.3 °F 69% 30.12 in 10.0 mi SSE 9.2 mph - N/A   Clear
12:55 AM 34.0 °F 27.2 °F 25.5 °F 71% 30.12 in 10.0 mi SSE 8.1 mph - N/A   Clear
1:15 AM 34.0 °F 27.2 °F 25.7 °F 72% 30.13 in 10.0 mi SSE 8.1 mph - N/A   Clear
1:35 AM 33.8 °F 27.0 °F 25.9 °F 73% 30.12 in 10.0 mi SSE 8.1 mph - N/A   Clear
1:55 AM 34.0 °F 26.6 °F 25.9 °F 72% 30.12 in 10.0 mi SE 9.2 mph - N/A   Clear
2:15 AM 33.8 °F 28.6 °F 26.1 °F 73% 30.12 in 10.0 mi SSE 5.8 mph - N/A   Clear
2:35 AM 32.5 °F 25.5 °F 25.7 °F 76% 30.12 in 10.0 mi SE 8.1 mph - N/A   Clear
2:55 AM 32.5 °F 25.5 °F 26.1 °F 77% 30.11 in 10.0 mi SE 8.1 mph - N/A   Clear
3:15 AM 32.5 °F 26.2 °F 26.1 °F 77% 30.11 in 10.0 mi SE 6.9 mph - N/A   Clear
3:35 AM 32.4 °F 26.0 °F 26.1 °F 78% 30.10 in 10.0 mi SE 6.9 mph - N/A   Clear
3:55 AM 32.0 °F 25.6 °F 25.9 °F 78% 30.10 in 10.0 mi SE 6.9 mph - N/A   Clear
4:15 AM 31.8 °F 25.4 °F 26.1 °F 79% 30.09 in 10.0 mi SE 6.9 mph - N/A   Clear
4:35 AM 32.0 °F 24.8 °F 26.1 °F 79% 30.08 in 10.0 mi SE 8.1 mph - N/A   Clear
4:55 AM 32.0 °F 24.8 °F 26.4 °F 80% 30.07 in 10.0 mi SE 8.1 mph - N/A   Clear
5:15 AM 32.0 °F 24.8 °F 26.6 °F 80% 30.08 in 10.0 mi SE 8.1 mph - N/A   Clear
5:35 AM 32.0 °F 25.6 °F 26.6 °F 80% 30.07 in 10.0 mi SE 6.9 mph - N/A   Clear
5:55 AM 32.0 °F 24.2 °F 27.1 °F 82% 30.06 in 10.0 mi SE 9.2 mph - N/A   Clear
6:15 AM 32.0 °F 24.2 °F 27.5 °F 83% 30.06 in 10.0 mi SE 9.2 mph - N/A   Clear
6:35 AM 31.8 °F 23.9 °F 27.9 °F 85% 30.05 in 10.0 mi SE 9.2 mph - N/A   Clear
6:55 AM 32.0 °F 25.6 °F 28.2 °F 86% 30.05 in 10.0 mi SE 6.9 mph - N/A   Scattered Clouds
7:15 AM 32.5 °F 24.8 °F 29.1 °F 87% 30.05 in 10.0 mi SE 9.2 mph - N/A   Mostly Cloudy
7:35 AM 33.4 °F 24.8 °F 29.7 °F 86% 30.03 in 10.0 mi SE 11.5 mph - N/A   Overcast
7:55 AM 34.3 °F 26.5 °F 30.4 °F 85% 30.04 in 10.0 mi SE 10.4 mph - N/A   Overcast
8:15 AM 35.6 °F 28.6 °F 31.1 °F 84% 30.03 in 10.0 mi SE 9.2 mph - N/A   Overcast
8:35 AM 36.9 °F 30.7 °F 32.0 °F 83% 30.04 in 10.0 mi SE 8.1 mph - N/A   Overcast
8:55 AM 38.7 °F 32.9 °F 32.9 °F 80% 30.03 in 10.0 mi SE 8.1 mph - N/A   Overcast
9:15 AM 40.5 °F 35.1 °F 33.8 °F 77% 30.02 in 10.0 mi SE 8.1 mph - N/A   Mostly Cloudy
9:35 AM 43.3 °F 36.8 °F 35.6 °F 74% 30.02 in 10.0 mi SSE 12.7 mph 17.3 mph N/A   Mostly Cloudy
9:55 AM 46.4 °F 40.7 °F 36.7 °F 69% 30.02 in 10.0 mi SSE 12.7 mph 18.4 mph N/A   Scattered Clouds
10:15 AM 48.4 °F - 37.9 °F 67% 30.01 in 10.0 mi South 13.8 mph 19.6 mph N/A   Scattered Clouds
10:35 AM 50.5 °F - 39.6 °F 66% 30.00 in 10.0 mi South 12.7 mph 19.6 mph N/A   Mostly Cloudy
10:55 AM 52.9 °F - 41.4 °F 65% 30.00 in 10.0 mi South 17.3 mph 23.0 mph N/A   Overcast
11:15 AM 55.4 °F - 42.8 °F 63% 29.98 in 10.0 mi South 20.7 mph 27.6 mph N/A   Overcast
11:35 AM 56.3 °F - 43.3 °F 62% 29.96 in 10.0 mi South 18.4 mph 24.2 mph N/A   Overcast
11:55 AM 57.6 °F - 44.2 °F 61% 29.95 in 10.0 mi South 23.0 mph 27.6 mph N/A   Overcast
12:15 PM 59.7 °F - 44.8 °F 58% 29.92 in 10.0 mi South 21.9 mph 28.8 mph N/A   Overcast
12:35 PM 60.1 °F - 45.5 °F 59% 29.90 in 10.0 mi SSW 16.1 mph 24.2 mph N/A   Mostly Cloudy
12:55 PM 61.9 °F - 46.0 °F 56% 29.89 in 10.0 mi South 19.6 mph 26.5 mph N/A   Mostly Cloudy
1:15 PM 63.1 °F - 46.4 °F 54% 29.87 in 10.0 mi South 23.0 mph 26.5 mph N/A   Mostly Cloudy
1:35 PM 64.0 °F - 46.6 °F 53% 29.87 in 10.0 mi SSW 17.3 mph 26.5 mph N/A   Scattered Clouds
1:55 PM 64.8 °F - 46.6 °F 52% 29.85 in 10.0 mi South 24.2 mph 31.1 mph N/A   Scattered Clouds
2:15 PM 65.5 °F - 46.4 °F 50% 29.84 in 10.0 mi South 18.4 mph 29.9 mph N/A   Scattered Clouds
2:35 PM 65.3 °F - 46.6 °F 51% 29.84 in 10.0 mi South 24.2 mph 29.9 mph N/A   Scattered Clouds
2:55 PM 65.3 °F - 46.8 °F 51% 29.83 in 10.0 mi South 18.4 mph 25.3 mph N/A   Scattered Clouds
3:15 PM 65.7 °F - 46.9 °F 51% 29.82 in 10.0 mi South 18.4 mph 25.3 mph N/A   Scattered Clouds
3:35 PM 65.5 °F - 47.3 °F 52% 29.82 in 10.0 mi South 15.0 mph 21.9 mph N/A   Clear
3:55 PM 64.8 °F - 47.7 °F 54% 29.82 in 10.0 mi South 13.8 mph 25.3 mph N/A   Clear
4:15 PM 64.2 °F - 48.2 °F 56% 29.82 in 10.0 mi South 16.1 mph - N/A   Clear
4:35 PM 64.4 °F - 48.2 °F 56% 29.81 in 10.0 mi South 15.0 mph 18.4 mph N/A   Clear
4:55 PM 63.5 °F - 48.2 °F 57% 29.82 in 10.0 mi South 12.7 mph 21.9 mph N/A   Clear
5:15 PM 62.8 °F - 48.4 °F 59% 29.82 in 10.0 mi South 12.7 mph - N/A   Scattered Clouds
5:35 PM 61.7 °F - 48.7 °F 62% 29.82 in 10.0 mi South 12.7 mph - N/A   Overcast
5:55 PM 61.5 °F - 49.1 °F 64% 29.82 in 10.0 mi South 10.4 mph - N/A   Mostly Cloudy
6:15 PM 61.3 °F - 49.1 °F 64% 29.83 in 10.0 mi SSE 9.2 mph - N/A   Overcast
6:35 PM 60.8 °F - 49.1 °F 65% 29.83 in 10.0 mi South 11.5 mph 16.1 mph N/A   Overcast
6:55 PM 60.8 °F - 49.3 °F 66% 29.83 in 10.0 mi SSE 10.4 mph - N/A   Overcast
7:15 PM 60.8 °F - 49.6 °F 67% 29.83 in 10.0 mi SSE 9.2 mph 17.3 mph N/A   Overcast
7:35 PM 60.6 °F - 49.8 °F 68% 29.83 in 10.0 mi SSE 10.4 mph - N/A   Overcast
7:55 PM 60.3 °F - 50.0 °F 69% 29.84 in 10.0 mi SSE 10.4 mph 16.1 mph N/A   Overcast
8:15 PM 59.9 °F - 50.0 °F 70% 29.84 in 10.0 mi South 11.5 mph 19.6 mph N/A   Overcast
8:35 PM 59.7 °F - 50.0 °F 70% 29.85 in 10.0 mi South 13.8 mph - N/A   Mostly Cloudy
8:55 PM 59.4 °F - 49.8 °F 71% 29.85 in 10.0 mi South 10.4 mph - N/A   Overcast
9:15 PM 58.5 °F - 49.6 °F 72% 29.84 in 10.0 mi SSE 10.4 mph - N/A   Mostly Cloudy
9:35 PM 58.8 °F - 50.0 °F 73% 29.84 in 10.0 mi South 13.8 mph - N/A   Mostly Cloudy
9:55 PM 58.1 °F - 50.0 °F 74% 29.83 in 10.0 mi South 10.4 mph - N/A   Mostly Cloudy
10:15 PM 57.7 °F - 50.0 °F 75% 29.83 in 10.0 mi SSE 9.2 mph - N/A   Scattered Clouds
10:35 PM 58.1 °F - 50.4 °F 75% 29.83 in 10.0 mi SSE 9.2 mph - N/A   Mostly Cloudy
10:55 PM 57.7 °F - 50.5 °F 77% 29.82 in 10.0 mi South 9.2 mph - N/A   Mostly Cloudy
11:15 PM 58.3 °F - 50.9 °F 76% 29.83 in 10.0 mi South 9.2 mph 16.1 mph N/A   Mostly Cloudy
11:35 PM 58.6 °F - 51.1 °F 76% 29.82 in 10.0 mi SSE 9.2 mph 16.1 mph N/A   Overcast
11:55 PM 58.6 °F - 51.3 °F 76% 29.81 in 10.0 mi SSE 9.2 mph - N/A   Overcast